Haderslev, Denmark
Current Conditions -  °F | °C
As of 12:50 AM on Saturday 25 Oct 2014 (Local Time) from EKSP Reporting Station
Light Rain Light Rain  
Wind Chill: 50°   Ceiling: 900
Heat Index: 50°   Visibility: 2.5mi
Dew Point: 48°   Wind: 12mph
Humidity: 94%   Direction: 180°S
Pressure: 29.94"   Gusts: NA
Location:  55.25°N, 9.49°E
Report Text: EKSP 242250Z 18010KT 4000 -RA BKN009 10/09 Q1014
Loading
Personal Weather Stations






























Interactive Weather Map
Tropical Storm Tracking
New forecast layout! Learn more

10-Day Weather Forecast

Advertisements
Track Severe Weather on mobile